CAB123 EPPO-EPKK
Flight info
| Callsign | CAB123 |
|---|---|
| Flight time | N/A |
| Altitude | 31000 |
| Route | OBOKU DCT POLON N133 NUBLI DCT KUKAM |
| Aircraft | A20N/M-SDE2E3FGHIRWXY/LB1 |
Departure
| Time | 2026-05-01 14:59 |
|---|---|
| Airport | Poznań-Ławica Airport (EPPO) |
Arrival
| Time | N/A |
|---|---|
| Airport | Kraków John Paul II International Airport (EPKK) |
| Time | Latitude | Longitude | Altitude | Speed | Heading |
|---|---|---|---|---|---|
| 2026-05-01 14:21 | 52.41591 | 16.82819 | 304 ft | 0 kts | 202° |
| 2026-05-01 14:48 | 52.41606 | 16.82830 | 304 ft | 2 kts | 202° |
| 2026-05-01 14:48 | 52.41636 | 16.82850 | 303 ft | 2 kts | 202° |
| 2026-05-01 14:49 | 52.41651 | 16.82874 | 303 ft | 0 kts | 278° |
| 2026-05-01 14:53 | 52.41651 | 16.82872 | 303 ft | 1 kts | 278° |
| 2026-05-01 14:53 | 52.41655 | 16.82856 | 302 ft | 2 kts | 297° |
| 2026-05-01 14:53 | 52.41670 | 16.82837 | 303 ft | 4 kts | 327° |
| 2026-05-01 14:54 | 52.41698 | 16.82833 | 304 ft | 5 kts | 9° |
| 2026-05-01 14:54 | 52.41740 | 16.82850 | 304 ft | 7 kts | 15° |
| 2026-05-01 14:54 | 52.41796 | 16.82882 | 304 ft | 10 kts | 20° |
| 2026-05-01 14:54 | 52.41867 | 16.82873 | 304 ft | 12 kts | 321° |
| 2026-05-01 14:55 | 52.41905 | 16.82752 | 306 ft | 13 kts | 294° |
| 2026-05-01 14:55 | 52.41937 | 16.82605 | 305 ft | 14 kts | 288° |
| 2026-05-01 14:55 | 52.41967 | 16.82438 | 307 ft | 16 kts | 286° |
| 2026-05-01 14:55 | 52.42000 | 16.82253 | 307 ft | 18 kts | 287° |
| 2026-05-01 14:56 | 52.42042 | 16.82057 | 308 ft | 19 kts | 288° |
| 2026-05-01 14:56 | 52.42083 | 16.81844 | 310 ft | 20 kts | 287° |
| 2026-05-01 14:56 | 52.42125 | 16.81620 | 311 ft | 22 kts | 287° |
| 2026-05-01 14:56 | 52.42170 | 16.81378 | 312 ft | 23 kts | 285° |
| 2026-05-01 14:57 | 52.42214 | 16.81146 | 313 ft | 19 kts | 289° |
| 2026-05-01 14:57 | 52.42295 | 16.80738 | 316 ft | 18 kts | 287° |
| 2026-05-01 14:57 | 52.42346 | 16.80581 | 316 ft | 16 kts | 324° |
| 2026-05-01 14:58 | 52.42439 | 16.80584 | 316 ft | 15 kts | 17° |
| 2026-05-01 14:58 | 52.42483 | 16.80651 | 316 ft | 7 kts | 78° |
| 2026-05-01 14:58 | 52.42477 | 16.80729 | 317 ft | 7 kts | 104° |
| 2026-05-01 14:58 | 52.42452 | 16.80871 | 317 ft | 27 kts | 108° |
| 2026-05-01 14:59 | 52.42340 | 16.81443 | 313 ft | 86 kts | 107° |
| 2026-05-01 14:59 | 52.42098 | 16.82700 | 308 ft | 142 kts | 107° |
| 2026-05-01 14:59 | 52.41794 | 16.84422 | 587 ft | 164 kts | 105° |
| 2026-05-01 14:59 | 52.41451 | 16.86270 | 1110 ft | 179 kts | 105° |
| 2026-05-01 15:00 | 52.40590 | 16.90648 | 2028 ft | 225 kts | 105° |
| 2026-05-01 15:00 | 52.40082 | 16.93220 | 2497 ft | 250 kts | 106° |
| 2026-05-01 15:00 | 52.39533 | 16.96000 | 3256 ft | 261 kts | 105° |
| 2026-05-01 15:01 | 52.38977 | 16.98812 | 4206 ft | 265 kts | 105° |
| 2026-05-01 15:01 | 52.38405 | 17.01708 | 5199 ft | 269 kts | 105° |
| 2026-05-01 15:01 | 52.37830 | 17.04624 | 6172 ft | 271 kts | 105° |
| 2026-05-01 15:01 | 52.37250 | 17.07566 | 7133 ft | 272 kts | 104° |
| 2026-05-01 15:02 | 52.36667 | 17.10530 | 8033 ft | 275 kts | 104° |
| 2026-05-01 15:02 | 52.36469 | 17.11537 | 8316 ft | 276 kts | 104° |
| 2026-05-01 15:02 | 52.35481 | 17.16569 | 9755 ft | 282 kts | 103° |
| 2026-05-01 15:02 | 52.34874 | 17.19637 | 10522 ft | 289 kts | 103° |
| 2026-05-01 15:03 | 52.34240 | 17.22849 | 10786 ft | 312 kts | 103° |
| 2026-05-01 15:03 | 52.33548 | 17.26349 | 10976 ft | 335 kts | 104° |
| 2026-05-01 15:03 | 52.32812 | 17.30034 | 11481 ft | 345 kts | 104° |
| 2026-05-01 15:03 | 52.32058 | 17.33776 | 12161 ft | 349 kts | 104° |
| 2026-05-01 15:04 | 52.31290 | 17.37562 | 12860 ft | 352 kts | 104° |
| 2026-05-01 15:04 | 52.30512 | 17.41385 | 13560 ft | 356 kts | 104° |
| 2026-05-01 15:04 | 52.29729 | 17.45239 | 14243 ft | 359 kts | 103° |
| 2026-05-01 15:04 | 52.28939 | 17.49129 | 14873 ft | 362 kts | 103° |
| 2026-05-01 15:05 | 52.28144 | 17.53038 | 15506 ft | 364 kts | 103° |
| 2026-05-01 15:05 | 52.27353 | 17.56921 | 16142 ft | 366 kts | 103° |
| 2026-05-01 15:05 | 52.26548 | 17.60870 | 16766 ft | 368 kts | 103° |
| 2026-05-01 15:05 | 52.25738 | 17.64844 | 17395 ft | 370 kts | 103° |
| 2026-05-01 15:06 | 52.24923 | 17.68838 | 18023 ft | 372 kts | 103° |
| 2026-05-01 15:06 | 52.24111 | 17.72865 | 18643 ft | 374 kts | 100° |
| 2026-05-01 15:06 | 52.23600 | 17.76993 | 19165 ft | 370 kts | 90° |
| 2026-05-01 15:06 | 52.23554 | 17.81163 | 19701 ft | 367 kts | 81° |
| 2026-05-01 15:07 | 52.23895 | 17.85288 | 20235 ft | 368 kts | 77° |
| 2026-05-01 15:07 | 52.24282 | 17.89435 | 20774 ft | 371 kts | 77° |
| 2026-05-01 15:07 | 52.24658 | 17.93554 | 21261 ft | 374 kts | 78° |
| 2026-05-01 15:07 | 52.24800 | 17.97827 | 21734 ft | 382 kts | 88° |
| 2026-05-01 15:08 | 52.24430 | 18.02176 | 22204 ft | 391 kts | 99° |
| 2026-05-01 15:08 | 52.23536 | 18.06417 | 22691 ft | 400 kts | 108° |
| 2026-05-01 15:08 | 52.22420 | 18.10593 | 23143 ft | 403 kts | 108° |
| 2026-05-01 15:08 | 52.21300 | 18.14807 | 23608 ft | 406 kts | 108° |
| 2026-05-01 15:09 | 52.20175 | 18.19045 | 24041 ft | 409 kts | 108° |
| 2026-05-01 15:09 | 52.19045 | 18.23311 | 24429 ft | 412 kts | 108° |
| 2026-05-01 15:09 | 52.17906 | 18.27606 | 24815 ft | 414 kts | 108° |
| 2026-05-01 15:09 | 52.16773 | 18.31862 | 25185 ft | 416 kts | 108° |
| 2026-05-01 15:10 | 52.15616 | 18.36202 | 25570 ft | 418 kts | 108° |
| 2026-05-01 15:10 | 52.13282 | 18.44925 | 26325 ft | 423 kts | 108° |
| 2026-05-01 15:10 | 52.12104 | 18.49312 | 26740 ft | 425 kts | 108° |
| 2026-05-01 15:11 | 52.10915 | 18.53732 | 27130 ft | 427 kts | 108° |
| 2026-05-01 15:11 | 52.08511 | 18.62611 | 27904 ft | 431 kts | 108° |
| 2026-05-01 15:11 | 52.07295 | 18.67081 | 28234 ft | 433 kts | 108° |
| 2026-05-01 15:12 | 52.06074 | 18.71565 | 28306 ft | 433 kts | 109° |
| 2026-05-01 15:12 | 52.02434 | 18.84924 | 28306 ft | 433 kts | 108° |
| 2026-05-01 15:14 | 51.96306 | 19.07240 | 28314 ft | 433 kts | 108° |
| 2026-05-01 15:14 | 51.92662 | 19.20424 | 28298 ft | 433 kts | 108° |
| 2026-05-01 15:15 | 51.87728 | 19.38161 | 28306 ft | 434 kts | 109° |
| 2026-05-01 15:16 | 51.82724 | 19.55817 | 28294 ft | 436 kts | 112° |
| 2026-05-01 15:17 | 51.78961 | 19.63652 | 28297 ft | 451 kts | 133° |
| 2026-05-01 15:18 | 51.70541 | 19.70616 | 28306 ft | 469 kts | 157° |
| 2026-05-01 15:19 | 51.58142 | 19.77133 | 28300 ft | 471 kts | 156° |
| 2026-05-01 15:19 | 51.51916 | 19.80399 | 27183 ft | 468 kts | 156° |
| 2026-05-01 15:19 | 51.48828 | 19.82014 | 26491 ft | 465 kts | 156° |
| 2026-05-01 15:20 | 51.42719 | 19.85206 | 25197 ft | 458 kts | 157° |
| 2026-05-01 15:20 | 51.39767 | 19.86744 | 24584 ft | 455 kts | 157° |
| 2026-05-01 15:20 | 51.36765 | 19.88298 | 23970 ft | 452 kts | 158° |
| 2026-05-01 15:21 | 51.33748 | 19.89458 | 23280 ft | 452 kts | 164° |
| 2026-05-01 15:21 | 51.30669 | 19.90426 | 22592 ft | 449 kts | 164° |
| 2026-05-01 15:21 | 51.27619 | 19.91380 | 21958 ft | 444 kts | 164° |
| 2026-05-01 15:21 | 51.24597 | 19.92325 | 21356 ft | 441 kts | 164° |
| 2026-05-01 15:22 | 51.18621 | 19.94205 | 20160 ft | 434 kts | 164° |
| 2026-05-01 15:22 | 51.15666 | 19.95137 | 19601 ft | 431 kts | 164° |
| 2026-05-01 15:22 | 51.12734 | 19.96060 | 19083 ft | 428 kts | 164° |
| 2026-05-01 15:23 | 51.09823 | 19.96972 | 18531 ft | 425 kts | 164° |
| 2026-05-01 15:23 | 51.06973 | 19.97861 | 17932 ft | 422 kts | 164° |
| 2026-05-01 15:23 | 51.04108 | 19.98753 | 17344 ft | 418 kts | 164° |
| 2026-05-01 15:23 | 51.01267 | 19.99636 | 16796 ft | 414 kts | 164° |
| 2026-05-01 15:24 | 50.98457 | 20.00508 | 16240 ft | 410 kts | 164° |
| 2026-05-01 15:24 | 50.95672 | 20.01372 | 15667 ft | 406 kts | 164° |
| 2026-05-01 15:24 | 50.93034 | 20.02224 | 14552 ft | 416 kts | 163° |
| 2026-05-01 15:24 | 50.90184 | 20.03159 | 14055 ft | 412 kts | 164° |
| 2026-05-01 15:25 | 50.87421 | 20.04012 | 13797 ft | 398 kts | 165° |
| 2026-05-01 15:25 | 50.84719 | 20.04826 | 13283 ft | 395 kts | 165° |
| 2026-05-01 15:25 | 50.82057 | 20.05618 | 12614 ft | 394 kts | 167° |
| 2026-05-01 15:25 | 50.79321 | 20.05979 | 11947 ft | 396 kts | 177° |
| 2026-05-01 15:26 | 50.76571 | 20.05846 | 11380 ft | 393 kts | 179° |
| 2026-05-01 15:26 | 50.73876 | 20.05710 | 11012 ft | 383 kts | 179° |
| 2026-05-01 15:26 | 50.71228 | 20.05586 | 10512 ft | 379 kts | 179° |
| 2026-05-01 15:26 | 50.68614 | 20.05467 | 10143 ft | 371 kts | 179° |
| 2026-05-01 15:27 | 50.66085 | 20.05350 | 10007 ft | 356 kts | 179° |
| 2026-05-01 15:27 | 50.63657 | 20.05233 | 9872 ft | 344 kts | 179° |
| 2026-05-01 15:27 | 50.61309 | 20.05118 | 9733 ft | 332 kts | 179° |
| 2026-05-01 15:28 | 50.56828 | 20.04904 | 9461 ft | 313 kts | 179° |
| 2026-05-01 15:28 | 50.54671 | 20.04806 | 9189 ft | 309 kts | 179° |
| 2026-05-01 15:28 | 50.52563 | 20.04712 | 8896 ft | 306 kts | 180° |
| 2026-05-01 15:29 | 50.48350 | 20.04524 | 8303 ft | 300 kts | 180° |
| 2026-05-01 15:29 | 50.46272 | 20.04431 | 8008 ft | 298 kts | 180° |
| 2026-05-01 15:29 | 50.42153 | 20.04214 | 7433 ft | 294 kts | 181° |
| 2026-05-01 15:30 | 50.38780 | 20.04006 | 6971 ft | 290 kts | 182° |
| 2026-05-01 15:31 | 50.30218 | 20.03499 | 5691 ft | 282 kts | 181° |
| 2026-05-01 15:31 | 50.26389 | 20.04393 | 5003 ft | 282 kts | 168° |
| 2026-05-01 15:32 | 50.22767 | 20.06066 | 4727 ft | 263 kts | 142° |
| 2026-05-01 15:32 | 50.21274 | 20.10666 | 4435 ft | 235 kts | 84° |
| 2026-05-01 15:33 | 50.22206 | 20.18009 | 4000 ft | 230 kts | 75° |
| 2026-05-01 15:34 | 50.23204 | 20.25351 | 4001 ft | 232 kts | 75° |